Dyer Brook, Maine
Current Conditions -  °F | °C
As of 9:53 PM on Wednesday 26 Nov 2014 (Local Time) from KHUL Reporting Station
Light Snow Light Snow  
Wind Chill: 19°   Ceiling: 700
Heat Index: 29°   Visibility: 0.75mi
Dew Point: 26°   Wind: 13mph
Humidity: 89%   Direction: 10°N
Pressure: 30.02"   Gusts: NA
Location:  46.0051°N, 68.2487°W
Report Text: KHUL 270253Z AUTO 01011KT 3/4SM -SN BR OVC007 M02/M03 A3002 RMK AO2 SLP171 P0002 60010 T10171033 56028
Loading
Personal Weather Stations






























Interactive Weather Map New forecast layout! Learn more

10-Day Weather Forecast

Advertisements
Track Severe Weather on mobile